Aviation Digital Data Service (ADDS)

Output produced by METARs form (1437 UTC 23 January 2019)
found at http://www.aviationweather.gov/metar/data/
 
Forecast for: KBUR (BURBANK , CA, US)
Text: KBUR 231136Z 2312/2412 35006KT P6SM SCT250
Forecast period: 1200 to 2100 UTC 23 January 2019
Forecast type: FROM: standard forecast or significant change
Winds: from the N (350 degrees) at 7 MPH (6 knots; 3.1 m/s)
Visibility: 6 or more miles 10+ km)
Ceiling: at least 12,000 feet AGL
Clouds: scattered clouds at 25000 feet AGL
Weather: no significant weather forecast for this period
Text: FM232100 17007KT P6SM SKC
Forecast period: 2100 UTC 23 January 2019 to 0200 UTC 24 January 2019
Forecast type: FROM: standard forecast or significant change
Winds: from the S (170 degrees) at 8 MPH (7 knots; 3.6 m/s)
Visibility: 6 or more miles 10+ km)
Clouds: clear skies
Weather: no significant weather forecast for this period
Text: FM240200 VRB03KT P6SM SKC
Forecast period: 0200 to 1200 UTC 24 January 2019
Forecast type: FROM: standard forecast or significant change
Winds: variable direction winds at 3 MPH (3 knots; 1.5 m/s)
Visibility: 6 or more miles 10+ km)
Clouds: clear skies
Weather: no significant weather forecast for this period